Time;durP1;ratioP1;P1;durP2;ratioP2;P2;SDS_P1;SDS_P2;PMS_P1;PMS_P2;Temp;Humidity;BMP_temperature;BMP_pressure;BME280_temperature;BME280_humidity;BME280_pressure;Samples;Min_cycle;Max_cycle;Signal;HPM_P1;HPM_P2
2022/11/10 00:02:25;;;;;;;5.43;4.57;;;;;;;;;;5094441;28;20112;-85
2022/11/10 00:04:52;;;;;;;3.60;3.30;;;;;;;;;;5094843;28;20051;-85
2022/11/10 00:07:18;;;;;;;4.57;3.75;;;;;;;;;;5093026;28;20101;-85
2022/11/10 00:09:45;;;;;;;3.95;3.22;;;;;;;;;;5093975;28;20055;-84
2022/11/10 00:12:11;;;;;;;5.72;5.18;;;;;;;;;;5093845;28;20485;-85
2022/11/10 00:17:24;;;;;;;6.80;5.32;;;;;;;;;;5093594;28;20079;-84
2022/11/10 00:19:50;;;;;;;3.38;3.08;;;;;;;;;;5093699;28;20409;-84
2022/11/10 00:22:17;;;;;;;2.70;2.47;;;;;;;;;;5092901;28;20101;-85
2022/11/10 00:24:44;;;;;;;2.88;1.63;;;;;;;;;;5095708;28;20044;-84
2022/11/10 00:27:10;;;;;;;2.28;1.88;;;;;;;;;;5094317;28;20044;-86
2022/11/10 00:29:37;;;;;;;4.55;3.38;;;;;;;;;;5093836;28;20496;-85
2022/11/10 00:32:05;;;;;;;3.10;2.83;;;;;;;;;;5093846;28;20055;-85
2022/11/10 00:34:31;;;;;;;3.92;3.47;;;;;;;;;;5093620;28;20044;-84
2022/11/10 00:36:58;;;;;;;4.15;3.90;;;;;;;;;;5093997;28;20066;-85
2022/11/10 00:39:25;;;;;;;3.10;2.80;;;;;;;;;;5093180;28;20052;-85
2022/11/10 00:41:51;;;;;;;2.40;2.22;;;;;;;;;;5093562;28;20055;-85
2022/11/10 00:44:18;;;;;;;6.38;4.38;;;;;;;;;;5092982;28;20044;-84
2022/11/10 00:46:44;;;;;;;2.78;2.47;;;;;;;;;;5093369;28;20052;-85
2022/11/10 00:49:12;;;;;;;2.67;2.47;;;;;;;;;;5092956;28;20052;-84
2022/11/10 00:51:39;;;;;;;3.85;2.83;;;;;;;;;;5093113;28;20074;-84
2022/11/10 00:54:05;;;;;;;3.38;2.95;;;;;;;;;;5092586;28;20044;-85
2022/11/10 00:56:32;;;;;;;2.40;2.05;;;;;;;;;;5093262;28;20047;-84
2022/11/10 00:58:58;;;;;;;3.72;3.28;;;;;;;;;;5093150;28;20074;-84
2022/11/10 01:01:26;;;;;;;3.35;2.92;;;;;;;;;;5093079;28;20048;-84
2022/11/10 01:03:53;;;;;;;4.25;2.65;;;;;;;;;;5092760;28;20074;-84
2022/11/10 01:06:21;;;;;;;8.20;3.40;;;;;;;;;;5092730;28;20055;-85
2022/11/10 01:08:48;;;;;;;4.15;3.78;;;;;;;;;;5087243;28;20049;-85
2022/11/10 01:11:15;;;;;;;3.42;3.20;;;;;;;;;;5072051;28;20459;-84
2022/11/10 01:13:42;;;;;;;3.78;2.92;;;;;;;;;;5082801;28;20051;-85
2022/11/10 01:16:09;;;;;;;1.55;1.45;;;;;;;;;;5093118;28;20055;-83
2022/11/10 01:18:36;;;;;;;3.67;3.47;;;;;;;;;;5095095;28;20047;-86
2022/11/10 01:21:03;;;;;;;1.42;1.35;;;;;;;;;;5094283;28;20117;-86
2022/11/10 01:23:31;;;;;;;1.73;1.63;;;;;;;;;;5088142;28;20070;-85
2022/11/10 01:25:58;;;;;;;4.20;2.75;;;;;;;;;;5092851;28;20048;-86
2022/11/10 01:28:25;;;;;;;2.80;2.65;;;;;;;;;;5092700;28;20138;-85
2022/11/10 01:30:56;;;;;;;2.90;2.70;;;;;;;;;;5092276;28;20043;-86
2022/11/10 01:33:23;;;;;;;3.60;3.15;;;;;;;;;;5092121;28;20052;-85
2022/11/10 01:35:49;;;;;;;3.13;2.88;;;;;;;;;;5092514;28;20089;-85
2022/11/10 01:38:15;;;;;;;4.50;4.13;;;;;;;;;;5092694;28;20459;-85
2022/11/10 01:40:43;;;;;;;3.60;3.30;;;;;;;;;;5092506;28;20056;-86
2022/11/10 01:43:11;;;;;;;1.83;1.73;;;;;;;;;;5092434;28;20048;-85
2022/11/10 01:45:58;;;;;;;10.73;5.07;;;;;;;;;;5092313;28;20451;-86
2022/11/10 01:48:28;;;;;;;2.35;2.15;;;;;;;;;;5092211;28;20089;-85
2022/11/10 01:50:55;;;;;;;4.43;3.75;;;;;;;;;;5092556;28;20052;-86
2022/11/10 01:53:23;;;;;;;3.42;3.13;;;;;;;;;;5092123;28;20047;-86
2022/11/10 01:55:52;;;;;;;3.47;2.65;;;;;;;;;;5092468;28;20052;-85
2022/11/10 01:58:20;;;;;;;2.03;1.92;;;;;;;;;;5078730;28;20081;-86
2022/11/10 02:00:47;;;;;;;5.40;4.40;;;;;;;;;;5092072;28;20197;-85
2022/11/10 02:03:15;;;;;;;2.80;2.60;;;;;;;;;;5092462;28;20074;-85
2022/11/10 02:05:42;;;;;;;3.10;2.88;;;;;;;;;;5092441;28;20106;-85
2022/11/10 02:08:09;;;;;;;9.63;5.72;;;;;;;;;;5092282;28;20048;-84
2022/11/10 02:10:36;;;;;;;9.02;4.78;;;;;;;;;;5092207;28;20489;-85
2022/11/10 02:13:04;;;;;;;5.15;4.75;;;;;;;;;;5091393;28;20040;-85
2022/11/10 02:15:31;;;;;;;6.63;5.70;;;;;;;;;;5094382;28;20040;-82
2022/11/10 02:17:57;;;;;;;3.40;3.03;;;;;;;;;;5092645;28;20052;-86
2022/11/10 02:20:24;;;;;;;5.03;3.17;;;;;;;;;;5093422;28;20051;-85
2022/11/10 02:22:52;;;;;;;3.10;2.88;;;;;;;;;;5095013;28;20048;-85
2022/11/10 02:25:20;;;;;;;5.65;3.90;;;;;;;;;;5096193;28;20044;-85
2022/11/10 02:27:46;;;;;;;4.13;3.00;;;;;;;;;;5096192;28;20044;-85
2022/11/10 02:30:13;;;;;;;5.32;4.00;;;;;;;;;;5096108;28;20125;-84
2022/11/10 02:32:40;;;;;;;4.20;3.95;;;;;;;;;;5075886;28;20044;-84
2022/11/10 02:35:06;;;;;;;4.10;3.80;;;;;;;;;;5093495;28;20048;-84
2022/11/10 02:37:33;;;;;;;4.22;3.92;;;;;;;;;;5095758;28;20044;-84
2022/11/10 02:40:01;;;;;;;4.00;3.70;;;;;;;;;;5095493;28;20105;-84
2022/11/10 02:42:27;;;;;;;5.10;4.45;;;;;;;;;;5095618;28;20048;-85
2022/11/10 02:44:54;;;;;;;4.43;3.78;;;;;;;;;;5095589;28;20489;-84
2022/11/10 02:47:20;;;;;;;6.53;4.07;;;;;;;;;;5095934;28;20044;-84
2022/11/10 02:49:47;;;;;;;4.43;4.07;;;;;;;;;;5091226;28;20482;-86
2022/11/10 02:52:14;;;;;;;4.50;3.05;;;;;;;;;;5095723;28;20516;-85
2022/11/10 02:54:40;;;;;;;2.10;1.92;;;;;;;;;;5095143;28;20501;-86
2022/11/10 02:57:08;;;;;;;2.53;2.33;;;;;;;;;;5095798;28;20074;-85
2022/11/10 02:59:35;;;;;;;5.28;3.25;;;;;;;;;;5095487;28;20048;-85
2022/11/10 03:02:01;;;;;;;2.17;2.05;;;;;;;;;;5095753;28;20055;-85
2022/11/10 03:04:28;;;;;;;2.65;2.45;;;;;;;;;;5095225;28;20101;-84
2022/11/10 03:06:54;;;;;;;4.68;4.00;;;;;;;;;;5080155;28;20044;-85
2022/11/10 03:09:21;;;;;;;5.80;4.50;;;;;;;;;;5087558;28;20101;-84
2022/11/10 03:11:47;;;;;;;3.90;3.60;;;;;;;;;;5095245;28;20065;-85
2022/11/10 03:14:15;;;;;;;4.18;3.78;;;;;;;;;;5095086;28;20093;-85
2022/11/10 03:16:42;;;;;;;5.47;4.97;;;;;;;;;;5095122;28;20557;-86
2022/11/10 03:19:08;;;;;;;6.22;4.80;;;;;;;;;;5094801;28;20052;-85
2022/11/10 03:21:35;;;;;;;8.55;5.50;;;;;;;;;;5094786;28;20546;-85
2022/11/10 03:24:01;;;;;;;4.28;3.92;;;;;;;;;;5080729;28;20094;-85
2022/11/10 03:26:28;;;;;;;4.97;4.57;;;;;;;;;;5094610;28;20055;-85
2022/11/10 03:28:54;;;;;;;4.85;3.78;;;;;;;;;;5094426;28;20051;-85
2022/11/10 03:31:22;;;;;;;13.05;3.28;;;;;;;;;;5094833;28;20048;-85
2022/11/10 03:33:48;;;;;;;4.65;4.32;;;;;;;;;;5094274;28;20079;-84
2022/11/10 03:36:15;;;;;;;5.93;5.32;;;;;;;;;;5094445;28;20048;-85
2022/11/10 03:38:41;;;;;;;5.25;3.47;;;;;;;;;;5093471;28;20048;-86
2022/11/10 03:41:08;;;;;;;3.97;3.67;;;;;;;;;;5074095;28;20197;-85
2022/11/10 03:43:34;;;;;;;6.75;5.82;;;;;;;;;;5075488;28;20045;-85
2022/11/10 03:46:01;;;;;;;4.85;4.38;;;;;;;;;;5094313;28;20093;-85
2022/11/10 03:48:29;;;;;;;6.28;4.82;;;;;;;;;;5094481;28;20048;-84
2022/11/10 03:50:55;;;;;;;2.60;2.40;;;;;;;;;;5073555;28;20052;-84
2022/11/10 03:53:22;;;;;;;5.10;4.63;;;;;;;;;;5073948;28;20139;-85
2022/11/10 03:55:48;;;;;;;4.43;4.03;;;;;;;;;;5092148;28;20052;-84
2022/11/10 03:58:15;;;;;;;4.38;4.03;;;;;;;;;;5094088;28;20467;-84
2022/11/10 04:00:42;;;;;;;5.90;5.38;;;;;;;;;;5093996;28;20048;-84
2022/11/10 04:03:08;;;;;;;7.22;3.58;;;;;;;;;;5095607;28;20139;-84
2022/11/10 04:11:04;;;;;;;6.78;5.25;;;;;;;;;;5093625;28;20077;-84
2022/11/10 04:16:14;;;;;;;8.77;5.97;;;;;;;;;;5073476;28;20134;-85
2022/11/10 04:18:41;;;;;;;5.95;5.40;;;;;;;;;;5073742;28;20052;-85
2022/11/10 04:21:09;;;;;;;5.55;3.50;;;;;;;;;;5073931;28;20053;-84
2022/11/10 04:23:36;;;;;;;6.32;4.32;;;;;;;;;;5073563;28;20059;-85
2022/11/10 04:28:48;;;;;;;3.67;3.38;;;;;;;;;;5092888;28;20066;-86
2022/11/10 04:31:15;;;;;;;4.68;3.80;;;;;;;;;;5093450;28;20055;-85
2022/11/10 04:33:42;;;;;;;5.65;5.07;;;;;;;;;;5093336;28;20493;-84
2022/11/10 04:36:11;;;;;;;8.48;5.85;;;;;;;;;;5093241;28;20055;-84
2022/11/10 04:38:38;;;;;;;2.55;2.42;;;;;;;;;;5093467;28;20059;-84
2022/11/10 04:41:05;;;;;;;2.60;2.40;;;;;;;;;;5093181;28;20052;-85
2022/11/10 04:43:32;;;;;;;7.90;7.00;;;;;;;;;;5085437;28;20048;-85
2022/11/10 04:45:59;;;;;;;9.65;7.45;;;;;;;;;;5090386;28;20117;-85
2022/11/10 04:48:26;;;;;;;8.18;6.45;;;;;;;;;;5093521;28;20489;-86
2022/11/10 04:50:53;;;;;;;4.97;3.13;;;;;;;;;;5092779;28;20109;-85
2022/11/10 04:53:21;;;;;;;3.63;3.38;;;;;;;;;;5092879;28;20595;-84
2022/11/10 04:55:47;;;;;;;6.38;4.68;;;;;;;;;;5093046;28;20067;-85
2022/11/10 04:58:14;;;;;;;4.82;4.40;;;;;;;;;;5095497;28;20052;-86
2022/11/10 05:00:41;;;;;;;10.15;4.18;;;;;;;;;;5093115;28;20048;-85
2022/11/10 05:03:08;;;;;;;3.92;3.60;;;;;;;;;;5093032;28;20113;-85
2022/11/10 05:05:35;;;;;;;4.07;3.67;;;;;;;;;;5092859;28;20101;-85
2022/11/10 05:08:02;;;;;;;6.35;3.70;;;;;;;;;;5092552;28;20056;-84
2022/11/10 05:10:29;;;;;;;5.45;4.95;;;;;;;;;;5092561;28;20449;-85
2022/11/10 05:12:56;;;;;;;4.68;4.38;;;;;;;;;;5092685;28;20048;-85
2022/11/10 05:15:23;;;;;;;8.75;4.93;;;;;;;;;;5092623;28;20048;-85
2022/11/10 05:17:50;;;;;;;7.97;7.22;;;;;;;;;;5089302;28;20559;-85
2022/11/10 05:20:17;;;;;;;4.85;4.43;;;;;;;;;;5092842;28;20048;-85
2022/11/10 05:22:44;;;;;;;7.15;4.63;;;;;;;;;;5092304;28;20063;-85
2022/11/10 05:25:11;;;;;;;6.32;5.63;;;;;;;;;;5092503;28;20056;-84
2022/11/10 05:27:39;;;;;;;4.35;3.95;;;;;;;;;;5090869;28;20060;-84
2022/11/10 05:30:06;;;;;;;5.78;5.22;;;;;;;;;;5091385;28;20497;-83
2022/11/10 05:32:33;;;;;;;8.45;6.10;;;;;;;;;;5092533;28;20048;-85
2022/11/10 05:34:59;;;;;;;7.93;4.38;;;;;;;;;;5081992;28;20052;-84
2022/11/10 05:37:26;;;;;;;3.95;3.40;;;;;;;;;;5084470;28;20059;-84
2022/11/10 05:39:52;;;;;;;3.35;2.67;;;;;;;;;;5090057;28;20086;-85
2022/11/10 05:42:19;;;;;;;6.63;5.95;;;;;;;;;;5090999;28;20063;-85
2022/11/10 05:44:47;;;;;;;6.22;5.72;;;;;;;;;;5091079;28;20048;-84
2022/11/10 05:47:13;;;;;;;4.75;4.38;;;;;;;;;;5091526;28;20135;-85
2022/11/10 05:49:40;;;;;;;6.93;5.25;;;;;;;;;;5089845;28;20059;-85
2022/11/10 05:52:06;;;;;;;11.88;4.60;;;;;;;;;;5088790;28;20056;-84
2022/11/10 05:54:33;;;;;;;10.25;5.63;;;;;;;;;;5083215;28;20048;-85
2022/11/10 05:56:59;;;;;;;7.63;5.35;;;;;;;;;;5079525;28;20047;-85
2022/11/10 05:59:29;;;;;;;3.17;2.90;;;;;;;;;;5078153;28;20501;-86
2022/11/10 06:02:01;;;;;;;8.70;7.85;;;;;;;;;;5094877;28;20504;-86
2022/11/10 06:04:27;;;;;;;5.95;5.40;;;;;;;;;;5081002;28;20063;-85
2022/11/10 06:07:01;;;;;;;10.88;9.23;;;;;;;;;;5090387;28;20052;-85
2022/11/10 06:09:27;;;;;;;11.45;7.43;;;;;;;;;;5083016;28;20048;-85
2022/11/10 06:14:38;;;;;;;7.30;4.18;;;;;;;;;;5077807;28;20051;-86
2022/11/10 06:17:06;;;;;;;5.97;5.43;;;;;;;;;;5095343;28;20086;-85
2022/11/10 06:19:32;;;;;;;6.18;5.50;;;;;;;;;;5094298;28;20058;-86
2022/11/10 06:21:59;;;;;;;6.28;5.18;;;;;;;;;;5089663;28;20060;-86
2022/11/10 06:24:25;;;;;;;9.40;4.95;;;;;;;;;;5074379;28;20520;-86
2022/11/10 06:26:52;;;;;;;6.07;5.63;;;;;;;;;;5094156;28;20056;-85
2022/11/10 06:29:19;;;;;;;6.70;6.05;;;;;;;;;;5095640;28;20121;-86
2022/11/10 06:31:45;;;;;;;15.02;7.82;;;;;;;;;;5096028;28;20052;-86
2022/11/10 06:34:13;;;;;;;15.48;6.90;;;;;;;;;;5095103;28;20101;-88
2022/11/10 06:36:40;;;;;;;13.93;7.53;;;;;;;;;;5095217;28;20049;-87
2022/11/10 06:39:06;;;;;;;10.23;5.82;;;;;;;;;;5093469;28;20127;-86
2022/11/10 06:41:33;;;;;;;7.75;7.22;;;;;;;;;;5095200;28;20435;-86
2022/11/10 06:44:00;;;;;;;7.32;6.60;;;;;;;;;;5096034;28;20043;-86
2022/11/10 06:46:26;;;;;;;7.55;5.82;;;;;;;;;;5096149;28;20493;-85
2022/11/10 06:48:53;;;;;;;10.55;6.22;;;;;;;;;;5097776;28;20105;-87
2022/11/10 06:51:21;;;;;;;7.68;6.75;;;;;;;;;;5095997;28;20048;-85
2022/11/10 06:53:47;;;;;;;10.00;9.10;;;;;;;;;;5095988;28;20056;-86
2022/11/10 06:56:14;;;;;;;5.55;4.88;;;;;;;;;;5080775;28;20045;-86
2022/11/10 06:58:40;;;;;;;15.85;5.72;;;;;;;;;;5094241;28;20481;-86
2022/11/10 07:01:07;;;;;;;20.88;7.70;;;;;;;;;;5095827;28;20048;-86
2022/11/10 07:03:34;;;;;;;8.25;7.53;;;;;;;;;;5095880;28;20056;-86
2022/11/10 07:06:01;;;;;;;13.35;5.97;;;;;;;;;;5087049;28;20053;-86
2022/11/10 07:08:29;;;;;;;12.45;6.30;;;;;;;;;;5074951;28;20057;-86
2022/11/10 07:10:56;;;;;;;8.57;6.53;;;;;;;;;;5075121;28;20444;-86
2022/11/10 07:13:22;;;;;;;8.57;7.63;;;;;;;;;;5078612;28;20074;-86
2022/11/10 07:15:49;;;;;;;6.93;6.10;;;;;;;;;;5095416;28;20059;-86
2022/11/10 07:18:15;;;;;;;13.75;7.22;;;;;;;;;;5075134;28;20109;-86
2022/11/10 07:20:42;;;;;;;10.82;6.68;;;;;;;;;;5074945;28;20455;-86
2022/11/10 07:23:08;;;;;;;12.05;7.43;;;;;;;;;;5075343;28;20468;-86
2022/11/10 07:25:37;;;;;;;14.75;6.28;;;;;;;;;;5075049;28;20053;-85
2022/11/10 07:28:04;;;;;;;9.00;6.95;;;;;;;;;;5074965;28;20056;-86
2022/11/10 07:30:31;;;;;;;7.57;6.97;;;;;;;;;;5074949;28;20052;-86
2022/11/10 07:32:59;;;;;;;13.13;6.93;;;;;;;;;;5075101;28;20060;-86
2022/11/10 07:35:27;;;;;;;11.45;7.63;;;;;;;;;;5078879;28;20479;-86
2022/11/10 07:37:53;;;;;;;7.55;6.85;;;;;;;;;;5095222;28;20477;-86
2022/11/10 07:40:20;;;;;;;11.32;7.07;;;;;;;;;;5095168;28;20071;-84
2022/11/10 07:42:48;;;;;;;12.73;8.73;;;;;;;;;;5095896;28;20082;-85
2022/11/10 07:45:14;;;;;;;12.13;7.72;;;;;;;;;;5095262;28;20044;-86
2022/11/10 07:47:41;;;;;;;9.43;6.45;;;;;;;;;;5095005;28;20060;-85
2022/11/10 07:50:08;;;;;;;13.77;6.07;;;;;;;;;;5094430;28;20060;-86
2022/11/10 07:52:35;;;;;;;9.35;7.15;;;;;;;;;;5094969;28;20048;-86
2022/11/10 07:55:01;;;;;;;8.50;7.18;;;;;;;;;;5094252;28;20807;-84
2022/11/10 07:57:28;;;;;;;15.40;5.60;;;;;;;;;;5095003;28;20067;-86
2022/11/10 07:59:56;;;;;;;6.05;4.93;;;;;;;;;;5094363;28;20040;-86
2022/11/10 08:02:22;;;;;;;11.63;9.70;;;;;;;;;;5094813;28;20044;-85
2022/11/10 08:04:49;;;;;;;13.50;10.07;;;;;;;;;;5094066;28;20420;-84
2022/11/10 08:07:15;;;;;;;9.50;6.55;;;;;;;;;;5088746;28;20090;-86
2022/11/10 08:09:42;;;;;;;10.45;7.93;;;;;;;;;;5094113;28;20051;-86
2022/11/10 08:12:08;;;;;;;12.75;9.45;;;;;;;;;;5094034;28;20052;-85
2022/11/10 08:14:35;;;;;;;12.68;8.45;;;;;;;;;;5093948;28;20047;-85
2022/11/10 08:17:03;;;;;;;14.02;10.43;;;;;;;;;;5094121;28;20044;-86
2022/11/10 08:19:29;;;;;;;21.10;8.80;;;;;;;;;;5092886;28;20059;-85
2022/11/10 08:21:56;;;;;;;10.57;7.15;;;;;;;;;;5094004;28;20052;-86
2022/11/10 08:24:22;;;;;;;8.30;7.57;;;;;;;;;;5093510;28;20066;-86
2022/11/10 08:26:49;;;;;;;5.43;5.03;;;;;;;;;;5093811;28;20048;-84
2022/11/10 08:29:16;;;;;;;15.15;10.70;;;;;;;;;;5093540;28;20052;-85
2022/11/10 08:31:42;;;;;;;8.77;8.02;;;;;;;;;;5093870;28;20060;-85
2022/11/10 08:34:10;;;;;;;8.98;6.72;;;;;;;;;;5093260;28;20052;-85
2022/11/10 08:36:37;;;;;;;15.32;9.55;;;;;;;;;;5094130;28;20109;-85
2022/11/10 08:39:04;;;;;;;12.25;7.30;;;;;;;;;;5093572;28;20131;-85
2022/11/10 08:41:30;;;;;;;8.32;6.85;;;;;;;;;;5093225;28;20105;-85
2022/11/10 08:43:57;;;;;;;8.02;6.70;;;;;;;;;;5093678;28;20044;-84
2022/11/10 08:46:23;;;;;;;6.65;6.15;;;;;;;;;;5093424;28;20047;-85
2022/11/10 08:48:50;;;;;;;10.52;9.15;;;;;;;;;;5093361;28;20048;-85
2022/11/10 08:51:18;;;;;;;6.65;5.93;;;;;;;;;;5093178;28;20117;-83
2022/11/10 08:53:44;;;;;;;11.10;8.93;;;;;;;;;;5093501;28;20617;-85
2022/11/10 08:56:11;;;;;;;9.23;8.07;;;;;;;;;;5093529;28;20047;-85
2022/11/10 08:58:37;;;;;;;17.40;9.40;;;;;;;;;;5093665;28;20055;-85
2022/11/10 09:01:07;;;;;;;16.63;10.13;;;;;;;;;;5093063;28;20122;-85
2022/11/10 09:03:34;;;;;;;12.85;8.07;;;;;;;;;;5093399;28;20043;-84
2022/11/10 09:06:00;;;;;;;14.90;6.78;;;;;;;;;;5093077;28;20485;-84
2022/11/10 09:08:29;;;;;;;11.88;10.13;;;;;;;;;;5093394;28;20044;-85
2022/11/10 09:10:55;;;;;;;8.95;7.25;;;;;;;;;;5093119;28;20052;-85
2022/11/10 09:13:22;;;;;;;9.55;6.80;;;;;;;;;;5093064;28;20562;-85
2022/11/10 09:15:48;;;;;;;18.65;9.68;;;;;;;;;;5092964;28;20413;-85
2022/11/10 09:18:16;;;;;;;9.60;8.73;;;;;;;;;;5092997;28;20425;-84
2022/11/10 09:20:42;;;;;;;11.27;10.07;;;;;;;;;;5092740;28;20055;-86
2022/11/10 09:23:09;;;;;;;9.93;7.85;;;;;;;;;;5093493;28;20056;-85
2022/11/10 09:25:38;;;;;;;12.90;8.05;;;;;;;;;;5093121;28;20047;-85
2022/11/10 09:28:04;;;;;;;20.05;7.15;;;;;;;;;;5092758;28;20140;-85
2022/11/10 09:30:31;;;;;;;15.13;9.07;;;;;;;;;;5093003;28;20078;-83
2022/11/10 09:32:58;;;;;;;12.00;9.95;;;;;;;;;;5093840;28;20124;-87
2022/11/10 09:35:25;;;;;;;7.25;5.80;;;;;;;;;;5092647;28;20101;-85
2022/11/10 09:37:52;;;;;;;9.23;8.43;;;;;;;;;;5091737;28;20056;-86
2022/11/10 09:40:20;;;;;;;15.60;8.40;;;;;;;;;;5091731;28;20051;-86
2022/11/10 09:42:48;;;;;;;16.27;10.55;;;;;;;;;;5092424;28;20109;-85
2022/11/10 09:45:21;;;;;;;8.65;7.60;;;;;;;;;;5092396;28;20048;-86
2022/11/10 09:47:52;;;;;;;18.10;8.32;;;;;;;;;;5093136;28;20135;-85
2022/11/10 09:50:22;;;;;;;11.57;10.32;;;;;;;;;;5100220;28;20094;-86
2022/11/10 09:52:50;;;;;;;8.23;6.38;;;;;;;;;;5096954;28;20043;-86
2022/11/10 09:55:21;;;;;;;8.70;7.82;;;;;;;;;;5099271;28;20054;-85
2022/11/10 09:57:52;;;;;;;10.65;7.78;;;;;;;;;;5093202;28;20051;-85
2022/11/10 10:00:19;;;;;;;8.50;7.70;;;;;;;;;;5092730;28;20048;-85
2022/11/10 10:02:47;;;;;;;14.45;9.13;;;;;;;;;;5092170;28;20048;-85
2022/11/10 10:05:33;;;;;;;8.23;7.03;;;;;;;;;;5087161;28;20044;-84
2022/11/10 10:08:01;;;;;;;11.18;5.85;;;;;;;;;;5090115;28;20044;-85
2022/11/10 10:10:31;;;;;;;11.73;6.88;;;;;;;;;;5091746;28;20052;-86
2022/11/10 10:13:05;;;;;;;7.72;6.78;;;;;;;;;;5092310;28;20155;-88
2022/11/10 10:15:36;;;;;;;12.20;7.05;;;;;;;;;;5091738;28;20048;-86
2022/11/10 10:18:08;;;;;;;3.95;3.50;;;;;;;;;;5092369;28;20117;-85
2022/11/10 10:20:38;;;;;;;5.65;4.90;;;;;;;;;;5092118;28;20455;-85
2022/11/10 10:23:11;;;;;;;8.10;6.28;;;;;;;;;;5091756;28;20105;-83
2022/11/10 10:25:38;;;;;;;6.63;5.70;;;;;;;;;;5093608;28;20052;-86
2022/11/10 10:28:11;;;;;;;5.60;5.03;;;;;;;;;;5092470;28;20109;-84
2022/11/10 10:30:38;;;;;;;9.23;5.18;;;;;;;;;;5071841;28;20133;-85
2022/11/10 10:33:12;;;;;;;6.70;5.93;;;;;;;;;;5072143;28;20056;-84
2022/11/10 10:35:39;;;;;;;5.38;4.32;;;;;;;;;;5072270;28;20055;-85
2022/11/10 10:38:11;;;;;;;6.25;4.60;;;;;;;;;;5072451;28;20049;-85
2022/11/10 10:40:37;;;;;;;4.57;4.00;;;;;;;;;;5071473;28;20053;-84
2022/11/10 10:43:04;;;;;;;6.57;5.70;;;;;;;;;;5073604;28;20041;-85
2022/11/10 10:45:33;;;;;;;5.38;4.80;;;;;;;;;;5088066;28;20113;-84
2022/11/10 10:48:01;;;;;;;8.55;6.65;;;;;;;;;;5086080;28;20493;-84
2022/11/10 10:50:30;;;;;;;7.22;6.53;;;;;;;;;;5095321;28;20086;-85
2022/11/10 10:53:07;;;;;;;9.23;7.15;;;;;;;;;;5095098;28;20084;-84
2022/11/10 10:55:34;;;;;;;;;;;;;;;;;;5095772;28;20390;-85
2022/11/10 10:58:01;;;;;;;10.95;5.78;;;;;;;;;;5095362;28;19973;-84
2022/11/10 11:00:28;;;;;;;14.75;13.52;;;;;;;;;;5094880;28;20044;-84
2022/11/10 11:03:02;;;;;;;7.72;5.60;;;;;;;;;;5096030;28;20127;-84
2022/11/10 11:05:28;;;;;;;8.00;5.43;;;;;;;;;;5095668;28;20056;-85
2022/11/10 11:07:56;;;;;;;5.57;4.60;;;;;;;;;;5087663;28;20048;-85
2022/11/10 11:10:24;;;;;;;10.77;7.03;;;;;;;;;;5090870;28;20048;-85
2022/11/10 11:12:50;;;;;;;7.57;6.72;;;;;;;;;;5095328;28;20398;-84
2022/11/10 11:15:20;;;;;;;6.18;4.95;;;;;;;;;;5090346;28;20044;-84
2022/11/10 11:17:53;;;;;;;6.25;5.07;;;;;;;;;;5095281;28;20044;-85
2022/11/10 11:20:24;;;;;;;8.80;7.90;;;;;;;;;;5089567;28;20539;-85
2022/11/10 11:22:53;;;;;;;7.15;6.53;;;;;;;;;;5074372;28;20052;-85
2022/11/10 11:25:25;;;;;;;10.98;8.43;;;;;;;;;;5074971;28;20452;-85
2022/11/10 11:27:58;;;;;;;10.00;8.27;;;;;;;;;;5074169;28;20049;-86
2022/11/10 11:30:29;;;;;;;6.88;6.20;;;;;;;;;;5074954;28;20079;-85
2022/11/10 11:33:03;;;;;;;9.32;7.93;;;;;;;;;;5075108;28;20099;-85
2022/11/10 11:35:33;;;;;;;7.82;6.82;;;;;;;;;;5074357;28;20078;-85
2022/11/10 11:38:07;;;;;;;13.95;12.70;;;;;;;;;;5090952;28;20047;-85
2022/11/10 11:40:38;;;;;;;9.18;8.23;;;;;;;;;;5094474;28;20516;-85
2022/11/10 11:43:09;;;;;;;5.82;5.15;;;;;;;;;;5094321;28;20093;-85
2022/11/10 11:45:40;;;;;;;13.10;11.90;;;;;;;;;;5094575;28;20052;-85
2022/11/10 11:48:24;;;;;;;11.00;8.05;;;;;;;;;;5079463;28;20106;-85
2022/11/10 11:50:56;;;;;;;9.80;8.98;;;;;;;;;;5086659;28;20056;-85
2022/11/10 11:53:34;;;;;;;7.50;6.72;;;;;;;;;;5093862;28;20400;-85
2022/11/10 11:56:05;;;;;;;7.65;5.05;;;;;;;;;;5093984;28;20082;-85
2022/11/10 11:58:38;;;;;;;10.85;9.85;;;;;;;;;;5094035;28;20117;-85
2022/11/10 12:01:12;;;;;;;9.10;8.27;;;;;;;;;;5092936;28;20056;-85
2022/11/10 12:03:59;;;;;;;11.13;10.23;;;;;;;;;;5094214;28;20051;-86
2022/11/10 12:06:35;;;;;;;12.30;11.23;;;;;;;;;;5068160;28;20048;-85
2022/11/10 12:09:06;;;;;;;7.72;6.38;;;;;;;;;;5093866;28;20051;-85
2022/11/10 12:11:39;;;;;;;12.80;11.90;;;;;;;;;;5093895;28;20086;-85
2022/11/10 12:14:09;;;;;;;15.40;8.07;;;;;;;;;;5094250;28;20044;-84
2022/11/10 12:16:36;;;;;;;16.45;15.50;;;;;;;;;;5095634;28;20117;-85
2022/11/10 12:19:07;;;;;;;13.88;12.68;;;;;;;;;;5094006;28;20044;-85
2022/11/10 12:21:39;;;;;;;8.80;7.97;;;;;;;;;;5094122;28;20052;-85
2022/11/10 12:24:20;;;;;;;13.63;12.50;;;;;;;;;;5093551;28;20113;-84
2022/11/10 12:26:52;;;;;;;9.98;9.30;;;;;;;;;;5072438;28;20048;-85
2022/11/10 12:29:24;;;;;;;11.85;11.05;;;;;;;;;;5093657;28;20048;-85
2022/11/10 12:31:53;;;;;;;8.02;6.13;;;;;;;;;;5093728;28;20485;-85
2022/11/10 12:34:26;;;;;;;9.13;7.10;;;;;;;;;;5093262;28;20063;-85
2022/11/10 12:36:54;;;;;;;8.32;7.32;;;;;;;;;;5094241;28;20424;-85
2022/11/10 12:39:23;;;;;;;6.70;5.75;;;;;;;;;;5093200;28;20489;-84
2022/11/10 12:41:50;;;;;;;9.98;7.47;;;;;;;;;;5093537;28;20184;-85
2022/11/10 12:44:20;;;;;;;8.65;7.38;;;;;;;;;;5093678;28;20048;-85
2022/11/10 12:46:50;;;;;;;8.95;8.23;;;;;;;;;;5073554;28;20052;-85
2022/11/10 12:49:18;;;;;;;10.68;7.00;;;;;;;;;;5077618;28;20044;-84
2022/11/10 12:51:48;;;;;;;9.25;8.55;;;;;;;;;;5093095;28;20056;-85
2022/11/10 12:54:17;;;;;;;7.82;6.60;;;;;;;;;;5092547;28;20394;-85
2022/11/10 12:56:45;;;;;;;9.73;7.20;;;;;;;;;;5093672;28;20048;-85
2022/11/10 12:59:24;;;;;;;13.30;12.40;;;;;;;;;;5092831;28;20051;-84
2022/11/10 13:01:52;;;;;;;15.18;13.52;;;;;;;;;;5093168;28;20051;-84
2022/11/10 13:04:19;;;;;;;5.82;5.18;;;;;;;;;;5093431;28;20075;-86
2022/11/10 13:06:47;;;;;;;16.45;11.15;;;;;;;;;;5075410;28;20115;-85
2022/11/10 13:09:29;;;;;;;11.13;10.18;;;;;;;;;;5090443;28;20116;-85
2022/11/10 13:12:06;;;;;;;14.60;13.55;;;;;;;;;;5091877;28;20044;-85
2022/11/10 13:14:33;;;;;;;14.48;12.98;;;;;;;;;;5093159;28;20051;-85
2022/11/10 13:16:59;;;;;;;13.77;12.75;;;;;;;;;;5092852;28;20048;-85
2022/11/10 13:19:44;;;;;;;7.40;6.75;;;;;;;;;;5092879;28;20102;-84
2022/11/10 13:22:11;;;;;;;8.98;7.90;;;;;;;;;;5093071;28;20056;-85
2022/11/10 13:24:41;;;;;;;11.73;10.82;;;;;;;;;;5092235;28;20056;-85
2022/11/10 13:27:10;;;;;;;11.38;10.25;;;;;;;;;;5092838;28;20040;-85
2022/11/10 13:29:52;;;;;;;8.82;7.50;;;;;;;;;;5092915;28;20051;-85
2022/11/10 13:32:26;;;;;;;10.32;8.82;;;;;;;;;;5092741;28;20040;-85
2022/11/10 13:34:52;;;;;;;7.65;6.75;;;;;;;;;;5072218;28;20464;-85
2022/11/10 13:37:37;;;;;;;15.38;11.52;;;;;;;;;;5072221;28;20051;-85
2022/11/10 13:40:22;;;;;;;8.05;7.18;;;;;;;;;;5072438;28;20447;-85
2022/11/10 13:43:03;;;;;;;11.30;10.32;;;;;;;;;;5089936;28;20094;-85
2022/11/10 13:45:32;;;;;;;11.38;10.38;;;;;;;;;;5092659;28;20485;-85
2022/11/10 13:48:02;;;;;;;9.77;8.35;;;;;;;;;;5092630;28;20374;-85
2022/11/10 13:50:35;;;;;;;11.00;9.80;;;;;;;;;;5092492;28;20052;-84
2022/11/10 13:53:09;;;;;;;12.70;7.85;;;;;;;;;;5091691;28;20048;-84
2022/11/10 13:55:46;;;;;;;13.73;12.63;;;;;;;;;;5092746;28;20044;-91
2022/11/10 13:58:18;;;;;;;10.15;9.25;;;;;;;;;;5089945;28;20047;-88
2022/11/10 14:00:50;;;;;;;13.65;11.25;;;;;;;;;;5091117;28;20048;-84
2022/11/10 14:03:31;;;;;;;14.57;13.50;;;;;;;;;;5092970;28;20044;-83
2022/11/10 14:06:03;;;;;;;9.88;8.90;;;;;;;;;;5089967;28;20451;-84
2022/11/10 14:08:40;;;;;;;6.13;5.05;;;;;;;;;;5092175;28;20040;-84
2022/11/10 14:11:12;;;;;;;8.73;7.22;;;;;;;;;;5092166;28;20204;-85
2022/11/10 14:13:41;;;;;;;10.15;9.23;;;;;;;;;;5091704;28;20485;-85
2022/11/10 14:16:16;;;;;;;15.45;14.13;;;;;;;;;;5077571;28;20044;-85
2022/11/10 14:18:45;;;;;;;7.97;7.18;;;;;;;;;;5095624;28;20149;-85
2022/11/10 14:21:19;;;;;;;12.65;11.77;;;;;;;;;;5085935;28;20060;-84
2022/11/10 14:23:48;;;;;;;8.05;6.90;;;;;;;;;;5092080;28;20052;-84
2022/11/10 14:26:19;;;;;;;9.57;7.35;;;;;;;;;;5076724;28;20056;-85
2022/11/10 14:28:45;;;;;;;;;;;;;;;;;;5087684;28;20048;-86
2022/11/10 14:31:18;;;;;;;7.57;6.22;;;;;;;;;;5095419;28;19965;-85
2022/11/10 14:33:52;;;;;;;8.63;7.43;;;;;;;;;;5096061;28;20481;-84
2022/11/10 14:36:19;;;;;;;9.85;6.82;;;;;;;;;;5080091;28;20068;-86
2022/11/10 14:38:45;;;;;;;12.60;11.43;;;;;;;;;;5095859;28;20048;-85
2022/11/10 14:41:15;;;;;;;9.80;8.90;;;;;;;;;;5095942;28;20443;-85
2022/11/10 14:43:41;;;;;;;14.40;13.05;;;;;;;;;;5095907;28;20052;-88
2022/11/10 14:46:08;;;;;;;8.45;6.18;;;;;;;;;;5095305;28;20040;-87
2022/11/10 14:48:37;;;;;;;8.15;7.30;;;;;;;;;;5092176;28;20044;-87
2022/11/10 14:51:04;;;;;;;10.90;9.02;;;;;;;;;;5095120;28;20052;-87
2022/11/10 14:53:33;;;;;;;11.65;8.23;;;;;;;;;;5095181;28;20098;-87
2022/11/10 14:56:00;;;;;;;9.30;7.80;;;;;;;;;;5096317;28;20056;-87
2022/11/10 14:58:28;;;;;;;7.10;6.28;;;;;;;;;;5097862;28;20040;-89
2022/11/10 15:00:55;;;;;;;7.18;5.78;;;;;;;;;;5095730;28;20048;-85
2022/11/10 15:03:33;;;;;;;18.13;11.27;;;;;;;;;;5095456;28;20067;-84